< < Back
Terminal Aerodrome Forecast


Current Version              Previous Versions:   1  2  3  4  5  6  7  8  9  

Terminal Aerodrome Forecast

573
FTUS42 KGSP 031232 AAC
TAFGSP
TAF AMD
KGSP 031232Z 0313/0412 22006KT P6SM -SHRA SCT007 OVC120
      TEMPO 0313/0315 3SM TSRA BR OVC007CB
     FM031500 23011KT P6SM -SHRA BKN024 OVC100
     FM031600 23012KT P6SM -SHRA VCTS BKN060CB OVC120
     FM032000 24015G25KT P6SM -SHRA VCTS BKN040CB OVC120
     FM040000 24009KT P6SM BKN120=

Latest METAR

119
SAUS70 KWBC 031800 RRC
MTRGSP
METAR KGSP 031753Z 22011KT 10SM BKN017 OVC025 25/21 A2995 RMK AO2 SLP130
60004 T02500206 10261 20222 56007


USA.gov is the U.S. government's official web portal to all federal, state and local government web resources and services.